Terminal Aerodrome Forecast
Issued by NWS

Home | Current Version | Previous Version | Text Only | Print | Product List | Glossary On
Versions: 1 2 3 4 5 6 7 8 9 10 11 12 13 14 15 16
016
FTUS43 KOAX 232350
TAFCDR
TAF
KCDR 232350Z 2400/2424 04015G25KT 1SM BR BKN008 OVC015
      TEMPO 2400/2403 1/2SM SN OVC003
     FM241600 02008KT 1SM -SN OVC015
     FM242100 32005KT P6SM OVC025=

USA.gov is the U.S. government's official web portal to all federal, state and local government web resources and services.